Time;durP1;ratioP1;P1;durP2;ratioP2;P2;SDS_P1;SDS_P2;PMS_P1;PMS_P2;Temp;Humidity;BMP_temperature;BMP_pressure;BME280_temperature;BME280_humidity;BME280_pressure;Samples;Min_cycle;Max_cycle;Signal;HPM_P1;HPM_P2
2022/10/12 00:00:15;;;;;;;9.50;1.30;;;;;;;10.55;80.58;101640.22;2074162;28;20058;-75
2022/10/12 00:01:18;;;;;;;5.65;1.63;;;;;;;10.53;80.58;101634.28;2065323;28;20478;-75
2022/10/12 00:02:25;;;;;;;7.95;1.27;;;;;;;10.52;80.68;101644.22;2072941;28;20045;-75
2022/10/12 00:03:32;;;;;;;9.43;1.30;;;;;;;10.54;81.38;101644.00;2080444;28;20354;-75
2022/10/12 00:04:35;;;;;;;6.82;1.10;;;;;;;10.54;81.36;101639.44;2064891;28;20486;-75
2022/10/12 00:05:39;;;;;;;17.00;2.17;;;;;;;10.54;80.81;101634.03;2065255;28;20041;-75
2022/10/12 00:06:42;;;;;;;7.70;1.65;;;;;;;10.53;81.13;101639.66;2072548;28;20038;-75
2022/10/12 00:07:47;;;;;;;7.22;2.10;;;;;;;10.54;81.21;101634.03;2071536;28;20590;-75
2022/10/12 00:08:51;;;;;;;7.78;1.00;;;;;;;10.57;80.75;101632.72;2080564;28;20566;-75
2022/10/12 00:09:56;;;;;;;6.75;1.58;;;;;;;10.59;80.69;101639.50;2080508;28;20044;-74
2022/10/12 00:11:01;;;;;;;5.47;1.25;;;;;;;10.60;81.04;101632.22;2072573;28;20037;-74
2022/10/12 00:12:07;;;;;;;6.85;1.50;;;;;;;10.62;80.75;101635.47;2064851;28;20490;-73
2022/10/12 00:13:18;;;;;;;6.15;1.50;;;;;;;10.61;80.68;101637.34;2074132;28;20053;-75
2022/10/12 00:14:28;;;;;;;9.98;2.00;;;;;;;10.63;81.17;101645.19;2065158;28;20050;-73
2022/10/12 00:15:33;;;;;;;13.35;1.58;;;;;;;10.65;81.22;101643.03;2067726;28;20038;-73
2022/10/12 00:16:36;;;;;;;5.85;1.75;;;;;;;10.66;80.63;101641.97;2073309;28;20053;-74
2022/10/12 00:17:42;;;;;;;5.20;1.15;;;;;;;10.66;80.72;101639.28;2074083;28;20567;-73
2022/10/12 00:18:52;;;;;;;5.32;1.23;;;;;;;10.68;80.54;101645.22;2073434;28;20458;-74
2022/10/12 00:19:57;;;;;;;4.25;1.00;;;;;;;10.71;80.81;101643.91;2059599;28;20035;-74
2022/10/12 00:21:07;;;;;;;7.78;1.67;;;;;;;10.72;80.64;101645.53;2058137;28;20043;-74
2022/10/12 00:22:13;;;;;;;6.95;1.40;;;;;;;10.73;80.81;101647.97;2075243;28;20429;-74
2022/10/12 00:23:20;;;;;;;6.43;1.63;;;;;;;10.73;81.27;101647.97;2080138;28;20300;-73
2022/10/12 00:24:23;;;;;;;11.13;1.98;;;;;;;10.74;80.71;101638.81;2074121;28;20049;-73
2022/10/12 00:25:27;;;;;;;10.13;1.25;;;;;;;10.73;80.47;101641.78;2073333;28;20042;-73
2022/10/12 00:26:34;;;;;;;6.50;1.45;;;;;;;10.73;80.61;101641.78;2073602;28;20054;-73
2022/10/12 00:27:38;;;;;;;5.53;1.40;;;;;;;10.74;81.07;101644.22;2073615;28;20296;-73
2022/10/12 00:28:41;;;;;;;8.57;1.45;;;;;;;10.76;81.16;101655.53;2065934;28;20049;-74
2022/10/12 00:29:43;;;;;;;8.88;1.80;;;;;;;10.79;80.61;101651.53;2073883;28;20034;-73
2022/10/12 00:30:49;;;;;;;7.53;1.13;;;;;;;10.79;80.86;101649.66;2073155;28;20045;-73
2022/10/12 00:31:51;;;;;;;7.78;1.50;;;;;;;10.81;80.29;101655.59;2057838;28;20093;-73
2022/10/12 00:32:58;;;;;;;5.40;1.45;;;;;;;10.83;80.79;101648.06;2065858;28;20069;-73
2022/10/12 00:34:05;;;;;;;6.18;1.40;;;;;;;10.85;80.39;101661.28;2065748;28;20699;-74
2022/10/12 00:35:09;;;;;;;6.15;1.27;;;;;;;10.86;80.56;101652.94;2065457;28;20760;-73
2022/10/12 00:36:26;;;;;;;8.65;1.50;;;;;;;10.88;80.48;101655.41;2079975;28;20053;-73
2022/10/12 00:37:34;;;;;;;4.10;0.93;;;;;;;10.89;80.55;101657.00;2079926;28;20056;-73
2022/10/12 00:38:36;;;;;;;14.95;1.25;;;;;;;10.90;80.19;101653.25;2079960;28;20604;-74
2022/10/12 00:39:41;;;;;;;6.93;1.08;;;;;;;10.90;79.97;101648.66;2072386;28;20084;-73
2022/10/12 00:40:45;;;;;;;5.53;2.20;;;;;;;10.90;79.93;101654.06;2072490;28;20045;-73
2022/10/12 00:41:50;;;;;;;6.18;1.40;;;;;;;10.90;79.99;101653.25;2080411;28;20053;-74
2022/10/12 00:42:59;;;;;;;4.47;1.00;;;;;;;10.90;80.11;101647.88;2080131;28;20425;-73
2022/10/12 00:44:01;;;;;;;8.38;1.25;;;;;;;10.89;80.52;101644.38;2064736;28;20038;-73
2022/10/12 00:45:09;;;;;;;8.43;1.60;;;;;;;10.90;80.18;101645.97;2055972;28;20058;-74
2022/10/12 00:46:10;;;;;;;6.90;1.17;;;;;;;10.90;80.27;101656.75;2064997;28;20045;-74
2022/10/12 00:47:34;;;;;;;6.40;1.38;;;;;;;10.92;80.20;101658.38;2073761;28;20541;-73
2022/10/12 00:48:41;;;;;;;6.32;1.25;;;;;;;10.92;80.32;101658.38;2081348;28;20453;-74
2022/10/12 00:49:46;;;;;;;6.72;1.38;;;;;;;10.93;80.11;101660.00;2073769;28;20413;-73
2022/10/12 00:50:52;;;;;;;6.43;1.10;;;;;;;10.93;80.21;101662.69;2081495;28;20041;-74
2022/10/12 00:52:03;;;;;;;8.98;1.30;;;;;;;10.94;79.76;101656.25;2073309;28;20030;-74
2022/10/12 00:53:13;;;;;;;9.52;1.33;;;;;;;10.95;80.35;101660.56;2065392;28;20352;-74
2022/10/12 00:54:22;;;;;;;4.68;1.50;;;;;;;10.95;80.33;101661.38;2074195;28;20054;-74
2022/10/12 00:55:33;;;;;;;5.00;1.20;;;;;;;10.94;80.09;101659.78;2073022;28;20040;-74
2022/10/12 00:56:41;;;;;;;7.57;1.45;;;;;;;10.93;79.57;101660.00;2051266;28;20035;-74
2022/10/12 00:57:48;;;;;;;8.02;1.73;;;;;;;10.88;79.52;101671.53;2059611;28;20444;-74
2022/10/12 00:58:51;;;;;;;8.65;1.25;;;;;;;10.87;80.15;101676.09;2065895;28;20422;-74
2022/10/12 01:00:13;;;;;;;7.55;1.30;;;;;;;10.85;79.74;101672.84;2065290;28;20077;-74
2022/10/12 01:01:20;;;;;;;6.35;1.42;;;;;;;10.84;80.37;101676.59;2074896;28;20053;-74
2022/10/12 01:02:25;;;;;;;6.13;1.10;;;;;;;10.84;80.21;101670.41;2073052;28;20506;-74
2022/10/12 01:03:28;;;;;;;9.13;1.20;;;;;;;10.84;80.17;101675.78;2065912;28;20126;-74
2022/10/12 01:04:31;;;;;;;10.73;1.20;;;;;;;10.86;80.44;101674.47;2073163;28;20056;-74
2022/10/12 01:05:40;;;;;;;7.65;1.27;;;;;;;10.88;79.83;101676.94;2073495;28;20046;-73
2022/10/12 01:06:48;;;;;;;10.10;1.83;;;;;;;10.89;80.46;101679.34;2081081;28;20033;-74
2022/10/12 01:07:55;;;;;;;10.65;1.40;;;;;;;10.91;79.79;101679.09;2072684;28;20046;-74
2022/10/12 01:08:57;;;;;;;11.35;1.45;;;;;;;10.89;80.32;101679.34;2073283;28;20034;-74
2022/10/12 01:10:07;;;;;;;7.35;1.30;;;;;;;10.88;79.91;101687.69;2073594;28;20478;-73
2022/10/12 01:11:10;;;;;;;7.97;1.25;;;;;;;10.82;80.11;101689.50;2073232;28;20042;-74
2022/10/12 01:12:18;;;;;;;4.22;1.05;;;;;;;10.83;80.06;101695.69;2065371;28;20049;-74
2022/10/12 01:13:22;;;;;;;8.30;0.90;;;;;;;10.83;80.27;101696.50;2065881;28;20038;-73
2022/10/12 01:14:28;;;;;;;4.57;0.95;;;;;;;10.77;80.04;101692.13;2073032;28;20046;-74
2022/10/12 01:15:43;;;;;;;8.57;1.27;;;;;;;10.76;80.35;101695.06;2080036;28;20056;-74
2022/10/12 01:16:52;;;;;;;4.85;1.23;;;;;;;10.76;80.05;101697.78;2072835;28;20045;-74
2022/10/12 01:17:58;;;;;;;8.55;1.10;;;;;;;10.76;80.62;101695.88;2064989;28;20045;-74
2022/10/12 01:19:17;;;;;;;9.75;1.73;;;;;;;10.79;81.10;101691.88;2058228;28;20464;-74
2022/10/12 01:20:33;;;;;;;3.42;1.13;;;;;;;10.81;80.74;101687.88;2059176;28;20050;-74
2022/10/12 01:22:06;;;;;;;5.38;1.05;;;;;;;10.81;81.27;101690.56;2067308;28;20042;-74
2022/10/12 01:23:18;;;;;;;8.40;1.10;;;;;;;10.81;81.11;101689.75;2073893;28;20058;-73
2022/10/12 01:24:51;;;;;;;8.80;1.27;;;;;;;10.81;81.01;101687.88;2074540;28;20509;-74
2022/10/12 01:25:58;;;;;;;7.53;1.50;;;;;;;10.81;81.12;101687.88;2062587;28;20465;-72
2022/10/12 01:27:35;;;;;;;4.10;0.95;;;;;;;10.81;81.59;101689.75;2058864;28;20039;-75
2022/10/12 01:28:55;;;;;;;8.45;1.10;;;;;;;10.80;82.17;101685.44;2074240;28;20040;-73
2022/10/12 01:30:25;;;;;;;6.40;1.20;;;;;;;10.81;82.20;101682.50;2071919;28;20045;-72
2022/10/12 01:31:37;;;;;;;7.03;1.17;;;;;;;10.80;82.22;101680.84;2063411;28;20038;-72
2022/10/12 01:32:56;;;;;;;9.85;1.10;;;;;;;10.80;81.79;101686.25;2066539;28;20041;-73
2022/10/12 01:34:27;;;;;;;4.28;1.40;;;;;;;10.79;82.24;101684.63;2066586;28;20674;-73
2022/10/12 01:35:41;;;;;;;9.95;1.90;;;;;;;10.77;82.40;101685.94;2076433;28;20034;-73
2022/10/12 01:36:50;;;;;;;9.52;1.40;;;;;;;10.75;82.44;101678.13;2063789;28;20026;-73
2022/10/12 01:38:10;;;;;;;4.93;1.13;;;;;;;10.70;82.83;101683.44;2051966;28;20046;-72
2022/10/12 01:39:27;;;;;;;4.03;1.20;;;;;;;10.62;82.25;101689.25;2061132;28;20065;-73
2022/10/12 01:40:45;;;;;;;2.80;1.00;;;;;;;10.58;82.33;101678.19;2065671;28;20054;-73
2022/10/12 01:41:54;;;;;;;6.82;1.10;;;;;;;10.59;82.86;101679.84;2064998;28;20418;-74
2022/10/12 01:42:57;;;;;;;5.60;1.30;;;;;;;10.60;83.60;101673.38;2063798;28;20042;-73
2022/10/12 01:43:59;;;;;;;4.20;1.20;;;;;;;10.63;83.40;101670.19;2064128;28;20046;-73
2022/10/12 01:45:13;;;;;;;6.55;1.30;;;;;;;10.63;83.38;101664.00;2063978;28;20034;-73
2022/10/12 01:46:14;;;;;;;6.35;1.40;;;;;;;10.65;83.80;101672.63;2057511;28;20582;-73
2022/10/12 01:47:17;;;;;;;6.22;1.20;;;;;;;10.65;83.60;101661.84;2055848;28;20045;-73
2022/10/12 01:48:20;;;;;;;5.85;1.10;;;;;;;10.65;83.58;101665.34;2055841;28;20267;-74
2022/10/12 01:49:31;;;;;;;3.45;1.08;;;;;;;10.65;83.77;101664.53;2056284;28;20054;-73
2022/10/12 01:50:51;;;;;;;2.90;1.00;;;;;;;10.66;83.44;101658.13;2049008;28;20039;-73
2022/10/12 01:51:55;;;;;;;4.32;1.15;;;;;;;10.68;84.07;101664.03;2063103;28;20045;-73
2022/10/12 01:53:40;;;;;;;9.15;1.20;;;;;;;10.69;83.62;101663.00;2063738;28;20165;-74
2022/10/12 01:54:45;;;;;;;7.32;1.13;;;;;;;10.71;83.64;101660.84;2044510;29;20039;-74
2022/10/12 01:55:46;;;;;;;6.00;1.30;;;;;;;10.71;83.60;101662.72;2056207;28;20053;-74
2022/10/12 01:56:59;;;;;;;5.93;1.02;;;;;;;10.72;83.63;101656.28;2057051;28;20049;-73
2022/10/12 01:58:39;;;;;;;4.88;1.10;;;;;;;10.70;83.56;101661.91;2074713;28;20037;-73
2022/10/12 01:59:53;;;;;;;6.72;1.40;;;;;;;10.70;83.98;101655.72;2075378;28;20125;-73
2022/10/12 02:01:11;;;;;;;8.18;1.58;;;;;;;10.68;84.24;101658.66;2074682;28;20081;-73
2022/10/12 02:02:22;;;;;;;5.05;1.10;;;;;;;10.65;83.93;101659.97;2074246;28;20289;-74
2022/10/12 02:03:40;;;;;;;7.93;1.10;;;;;;;10.61;84.29;101661.53;2074605;28;20049;-74
2022/10/12 02:04:53;;;;;;;8.13;1.08;;;;;;;10.58;84.15;101661.25;2074334;28;20045;-73
2022/10/12 02:06:06;;;;;;;5.57;1.20;;;;;;;10.53;83.90;101661.16;2067961;28;20297;-72
2022/10/12 02:07:13;;;;;;;6.32;1.10;;;;;;;10.50;84.08;101664.38;2067608;28;20050;-74
2022/10/12 02:08:44;;;;;;;5.13;1.33;;;;;;;10.46;83.96;101665.94;2066998;28;20054;-73
2022/10/12 02:09:54;;;;;;;5.40;1.50;;;;;;;10.39;83.87;101663.44;2060300;28;20042;-73
2022/10/12 02:11:12;;;;;;;5.47;1.33;;;;;;;10.35;83.93;101665.81;2066041;28;20285;-72
2022/10/12 02:12:32;;;;;;;8.50;1.45;;;;;;;10.32;83.59;101657.44;2062055;28;20055;-74
2022/10/12 02:14:02;;;;;;;9.32;1.60;;;;;;;10.25;83.93;101660.28;2074705;28;20025;-73
2022/10/12 02:15:10;;;;;;;7.65;1.25;;;;;;;10.21;84.33;101664.50;2066090;28;20065;-73
2022/10/12 02:16:18;;;;;;;10.07;1.98;;;;;;;10.18;84.05;101665.00;2060913;28;20043;-73
2022/10/12 02:17:22;;;;;;;5.35;1.38;;;;;;;10.13;84.09;101665.75;2074926;28;20753;-73
2022/10/12 02:18:28;;;;;;;6.30;2.08;;;;;;;10.12;84.52;101666.00;2074144;28;20642;-74
2022/10/12 02:19:38;;;;;;;4.40;1.73;;;;;;;10.12;84.51;101663.31;2073423;28;20049;-73
2022/10/12 02:20:53;;;;;;;4.50;1.30;;;;;;;10.10;84.50;101668.13;2073221;28;20033;-74
2022/10/12 02:22:02;;;;;;;3.92;1.20;;;;;;;10.10;84.64;101671.63;2066657;28;20034;-73
2022/10/12 02:23:07;;;;;;;4.82;1.27;;;;;;;10.10;84.33;101665.44;2073555;28;20416;-74
2022/10/12 02:24:14;;;;;;;6.25;1.08;;;;;;;10.10;84.68;101665.44;2070545;28;20038;-74
2022/10/12 02:25:20;;;;;;;3.20;1.13;;;;;;;10.10;84.21;101665.44;2066347;28;20045;-74
2022/10/12 02:26:33;;;;;;;5.05;1.02;;;;;;;10.11;85.25;101667.88;2074076;28;20053;-72
2022/10/12 02:27:41;;;;;;;6.50;1.48;;;;;;;10.15;84.77;101673.56;2081040;28;20454;-72
2022/10/12 02:28:47;;;;;;;9.55;1.20;;;;;;;10.16;85.24;101667.97;2073773;28;20049;-73
2022/10/12 02:29:52;;;;;;;3.15;1.10;;;;;;;10.19;85.49;101672.03;2081403;28;20041;-73
2022/10/12 02:31:02;;;;;;;6.45;1.30;;;;;;;10.18;84.92;101673.91;2081360;28;20291;-74
2022/10/12 02:32:22;;;;;;;4.72;1.00;;;;;;;10.17;85.28;101674.13;2081345;28;20046;-74
2022/10/12 02:33:42;;;;;;;4.00;1.27;;;;;;;10.19;84.92;101674.72;2081341;28;20284;-74
2022/10/12 02:35:02;;;;;;;7.18;1.17;;;;;;;10.17;85.01;101668.75;2067794;28;20030;-75
2022/10/12 02:36:36;;;;;;;4.47;1.20;;;;;;;10.21;85.06;101664.50;2075108;28;20041;-73
2022/10/12 02:37:46;;;;;;;4.65;0.85;;;;;;;10.26;85.22;101670.00;2073088;28;20296;-73
2022/10/12 02:39:16;;;;;;;6.68;1.10;;;;;;;10.32;84.76;101677.06;2058097;28;20049;-73
2022/10/12 02:40:28;;;;;;;6.28;1.10;;;;;;;10.36;84.84;101669.31;2065245;28;20046;-74
2022/10/12 02:41:36;;;;;;;8.20;1.20;;;;;;;10.39;85.14;101669.63;2073203;28;20296;-74
2022/10/12 02:42:48;;;;;;;4.28;1.35;;;;;;;10.43;84.64;101667.25;2058952;28;20435;-74
2022/10/12 02:43:52;;;;;;;4.07;0.95;;;;;;;10.47;84.68;101670.28;2068904;28;20038;-73
2022/10/12 02:44:59;;;;;;;5.03;1.15;;;;;;;10.48;84.27;101672.69;2074929;28;20280;-74
2022/10/12 02:46:08;;;;;;;7.63;1.27;;;;;;;10.49;84.47;101668.13;2074035;28;20520;-73
2022/10/12 02:47:15;;;;;;;5.15;1.23;;;;;;;10.53;83.95;101674.63;2067196;28;20034;-73
2022/10/12 02:48:21;;;;;;;4.75;1.40;;;;;;;10.54;84.48;101677.06;2075019;28;20034;-73
2022/10/12 02:49:27;;;;;;;5.60;1.73;;;;;;;10.54;84.18;101676.25;2082682;28;20291;-73
2022/10/12 02:50:33;;;;;;;6.10;1.02;;;;;;;10.55;83.83;101676.00;2073872;28;20049;-75
2022/10/12 02:51:42;;;;;;;6.60;1.25;;;;;;;10.57;83.55;101678.44;2067109;28;20042;-75
2022/10/12 02:52:46;;;;;;;4.70;1.02;;;;;;;10.59;84.29;101679.84;2082881;28;20307;-73
2022/10/12 02:53:52;;;;;;;6.75;1.15;;;;;;;10.60;83.73;101681.44;2088377;28;20283;-73
2022/10/12 02:54:54;;;;;;;6.68;1.33;;;;;;;10.60;84.19;101677.94;2065801;28;20034;-73
2022/10/12 02:56:05;;;;;;;3.33;1.48;;;;;;;10.58;84.05;101677.38;2066909;28;20053;-74
2022/10/12 02:57:11;;;;;;;;;;;;;;;10.57;83.50;101681.94;2074268;28;20045;-73
2022/10/12 02:58:18;;;;;;;5.05;1.25;;;;;;;10.56;83.58;101680.34;2075507;28;19917;-72
2022/10/12 02:59:23;;;;;;;8.48;1.30;;;;;;;10.60;83.59;101680.63;2073651;28;20045;-72
2022/10/12 03:00:29;;;;;;;5.85;1.23;;;;;;;10.61;83.84;101679.56;2067673;28;20285;-73
2022/10/12 03:01:32;;;;;;;6.47;1.30;;;;;;;10.62;83.46;101671.25;2074326;28;20045;-74
2022/10/12 03:02:38;;;;;;;3.92;1.30;;;;;;;10.62;83.34;101673.13;2066371;28;20297;-73
2022/10/12 03:03:46;;;;;;;11.45;1.63;;;;;;;10.64;83.59;101669.13;2075279;28;20030;-74
2022/10/12 03:04:51;;;;;;;5.50;1.45;;;;;;;10.65;83.21;101673.41;2081951;28;20040;-74
2022/10/12 03:05:53;;;;;;;6.72;1.17;;;;;;;10.64;84.05;101665.63;2073823;28;20042;-72
2022/10/12 03:06:58;;;;;;;4.90;1.38;;;;;;;10.64;83.31;101665.63;2058166;28;20042;-72
2022/10/12 03:08:02;;;;;;;7.40;1.77;;;;;;;10.65;83.73;101669.91;2074135;28;20399;-72
2022/10/12 03:09:10;;;;;;;4.32;1.33;;;;;;;10.59;83.67;101669.06;2072865;28;20065;-72
2022/10/12 03:10:19;;;;;;;6.38;1.20;;;;;;;10.55;83.19;101664.44;2073745;28;20060;-72
2022/10/12 03:11:23;;;;;;;5.47;1.27;;;;;;;10.51;83.33;101666.00;2065812;28;20050;-72
2022/10/12 03:12:28;;;;;;;4.85;1.23;;;;;;;10.54;83.53;101670.88;2065591;28;20046;-73
2022/10/12 03:13:33;;;;;;;8.82;1.40;;;;;;;10.55;84.17;101670.63;2064479;28;20057;-73
2022/10/12 03:14:36;;;;;;;6.50;1.30;;;;;;;10.57;83.61;101670.38;2057344;28;20050;-72
2022/10/12 03:15:39;;;;;;;8.52;1.20;;;;;;;10.59;83.75;101674.44;2073107;28;20049;-72
2022/10/12 03:16:45;;;;;;;4.60;1.27;;;;;;;10.61;83.54;101679.56;2072744;28;20293;-71
2022/10/12 03:17:49;;;;;;;8.25;1.55;;;;;;;10.63;83.69;101674.75;2073929;28;20057;-72
2022/10/12 03:18:51;;;;;;;3.33;0.90;;;;;;;10.63;83.85;101669.38;2088285;28;20083;-71
2022/10/12 03:19:53;;;;;;;7.60;1.42;;;;;;;10.65;83.83;101672.63;2072612;28;20284;-71
2022/10/12 03:20:58;;;;;;;6.72;1.27;;;;;;;10.65;83.83;101662.66;2072994;28;20045;-72
2022/10/12 03:22:03;;;;;;;6.30;1.20;;;;;;;10.67;83.56;101667.81;2073094;28;20359;-73
2022/10/12 03:23:05;;;;;;;11.98;1.58;;;;;;;10.68;83.34;101667.53;2066796;28;20042;-72
2022/10/12 03:24:07;;;;;;;3.53;1.10;;;;;;;10.68;83.86;101662.16;2072521;28;20108;-72
2022/10/12 03:25:13;;;;;;;5.20;1.38;;;;;;;10.68;83.22;101662.16;2066243;28;20065;-73
2022/10/12 03:26:16;;;;;;;8.23;1.65;;;;;;;10.67;83.89;101665.91;2073665;28;20569;-72
2022/10/12 03:27:21;;;;;;;4.47;1.08;;;;;;;10.68;83.32;101666.72;2066300;28;20049;-72
2022/10/12 03:28:30;;;;;;;8.35;1.38;;;;;;;10.68;83.90;101662.16;2065832;28;20046;-73
2022/10/12 03:29:33;;;;;;;7.15;1.73;;;;;;;10.69;83.65;101668.38;2075258;28;20474;-73
2022/10/12 03:30:38;;;;;;;5.05;1.00;;;;;;;10.68;83.58;101662.16;2073562;28;20037;-72
2022/10/12 03:31:46;;;;;;;10.88;1.30;;;;;;;10.69;83.83;101671.06;2081158;28;20152;-73
2022/10/12 03:32:48;;;;;;;4.78;1.13;;;;;;;10.70;83.57;101669.19;2073653;28;20501;-72
2022/10/12 03:33:50;;;;;;;3.22;1.02;;;;;;;10.69;83.73;101668.38;2066052;28;20038;-73
2022/10/12 03:34:56;;;;;;;7.03;1.33;;;;;;;10.71;83.95;101670.81;2081885;28;20056;-73
2022/10/12 03:36:03;;;;;;;3.35;0.90;;;;;;;10.70;83.38;101669.19;2066369;28;20053;-73
2022/10/12 03:37:06;;;;;;;8.02;1.20;;;;;;;10.68;83.68;101672.09;2059265;28;20047;-73
2022/10/12 03:38:08;;;;;;;6.63;1.60;;;;;;;10.69;83.86;101673.75;2073495;28;20050;-73
2022/10/12 03:39:12;;;;;;;6.18;1.20;;;;;;;10.67;83.51;101681.25;2081545;28;20064;-73
2022/10/12 03:40:15;;;;;;;5.15;1.27;;;;;;;10.66;84.02;101676.94;2073696;28;20042;-74
2022/10/12 03:41:20;;;;;;;4.38;0.90;;;;;;;10.66;83.95;101682.31;2065602;28;20289;-73
2022/10/12 03:42:25;;;;;;;9.00;1.45;;;;;;;10.64;83.41;101679.06;2066197;28;20046;-73
2022/10/12 03:43:33;;;;;;;4.47;1.25;;;;;;;10.65;84.06;101683.38;2065578;28;20518;-73
2022/10/12 03:44:36;;;;;;;4.80;1.30;;;;;;;10.65;83.85;101686.06;2064815;28;20035;-73
2022/10/12 03:45:40;;;;;;;3.97;1.23;;;;;;;10.64;83.89;101681.75;2064745;28;20038;-73
2022/10/12 03:46:50;;;;;;;6.18;1.10;;;;;;;10.61;83.54;101676.88;2072652;28;20076;-72
2022/10/12 03:47:52;;;;;;;8.30;1.35;;;;;;;10.58;84.19;101683.56;2064381;28;20042;-72
2022/10/12 03:48:55;;;;;;;3.13;0.90;;;;;;;10.58;83.61;101690.81;2048831;28;20302;-73
2022/10/12 03:49:57;;;;;;;4.13;1.20;;;;;;;10.55;83.65;101684.06;2056714;28;20298;-73
2022/10/12 03:51:04;;;;;;;4.55;1.00;;;;;;;10.54;83.68;101681.63;2064895;28;20049;-75
2022/10/12 03:52:07;;;;;;;5.07;1.20;;;;;;;10.53;83.98;101688.06;2072855;28;20152;-72
2022/10/12 03:53:16;;;;;;;5.63;1.05;;;;;;;10.49;83.95;101689.63;2072390;28;20045;-72
2022/10/12 03:54:19;;;;;;;5.55;0.90;;;;;;;10.46;84.26;101701.69;2057461;28;20045;-75
2022/10/12 03:55:22;;;;;;;5.95;1.55;;;;;;;10.47;83.89;101689.09;2072309;28;20050;-72
2022/10/12 03:56:25;;;;;;;7.25;1.10;;;;;;;10.47;84.25;101692.59;2081649;28;20516;-72
2022/10/12 03:57:28;;;;;;;4.68;1.20;;;;;;;10.47;84.23;101691.78;2073372;28;20049;-74
2022/10/12 03:58:38;;;;;;;4.05;1.23;;;;;;;10.44;83.85;101696.59;2073430;28;20061;-75
2022/10/12 03:59:40;;;;;;;3.53;1.20;;;;;;;10.42;83.84;101687.13;2065535;28;20289;-76
2022/10/12 04:00:44;;;;;;;4.03;1.10;;;;;;;10.38;83.83;101694.88;2065261;28;20049;-72
2022/10/12 04:01:52;;;;;;;5.93;1.30;;;;;;;10.33;83.92;101702.88;2074172;28;20053;-72
2022/10/12 04:02:57;;;;;;;3.05;1.00;;;;;;;10.32;84.16;101693.19;2081634;28;20052;-72
2022/10/12 04:04:02;;;;;;;5.65;1.08;;;;;;;10.28;84.35;101697.44;2081610;28;20049;-72
2022/10/12 04:05:07;;;;;;;4.97;1.17;;;;;;;10.25;84.18;101697.91;2065581;28;20332;-72
2022/10/12 04:06:13;;;;;;;4.53;1.23;;;;;;;10.21;84.24;101694.91;2058680;28;20549;-73
2022/10/12 04:07:20;;;;;;;6.57;1.13;;;;;;;10.19;84.34;101694.34;2073497;28;20045;-72
2022/10/12 04:08:22;;;;;;;6.95;1.52;;;;;;;10.15;84.71;101690.53;2058249;28;20050;-72
2022/10/12 04:09:27;;;;;;;3.85;1.35;;;;;;;10.14;84.49;101698.81;2066659;28;20042;-72
2022/10/12 04:10:33;;;;;;;7.30;1.38;;;;;;;10.10;84.45;101698.50;2065244;28;20689;-72
2022/10/12 04:11:36;;;;;;;4.80;1.50;;;;;;;10.08;84.40;101705.19;2049902;28;20055;-72
2022/10/12 04:12:40;;;;;;;5.93;1.10;;;;;;;10.06;84.58;101712.69;2056517;28;20039;-72
2022/10/12 04:13:43;;;;;;;4.95;1.35;;;;;;;10.01;84.68;101704.53;2064759;28;20479;-72
2022/10/12 04:14:49;;;;;;;9.52;1.40;;;;;;;10.00;84.76;101709.13;2064600;28;20053;-74
2022/10/12 04:15:54;;;;;;;3.22;1.10;;;;;;;9.96;84.75;101703.44;2072249;28;20048;-72
2022/10/12 04:16:56;;;;;;;6.18;1.17;;;;;;;9.95;85.27;101700.97;2064155;28;20054;-72
2022/10/12 04:18:08;;;;;;;2.85;1.30;;;;;;;9.93;85.13;101703.06;2057981;28;20278;-71
2022/10/12 04:19:16;;;;;;;4.68;1.48;;;;;;;9.92;85.42;101702.25;2057481;28;20513;-72
2022/10/12 04:20:19;;;;;;;5.75;1.38;;;;;;;9.91;85.48;101705.22;2065746;28;20050;-72
2022/10/12 04:21:25;;;;;;;9.52;1.42;;;;;;;9.90;85.56;101704.41;2063937;28;20046;-72
2022/10/12 04:22:27;;;;;;;5.57;1.38;;;;;;;9.89;85.82;101708.13;2064891;28;20417;-71
2022/10/12 04:23:30;;;;;;;8.35;2.38;;;;;;;9.89;85.75;101710.00;2072283;28;20319;-71
2022/10/12 04:24:34;;;;;;;5.82;1.13;;;;;;;9.88;85.51;101701.13;2056160;28;20045;-71
2022/10/12 04:25:39;;;;;;;4.35;1.00;;;;;;;9.85;85.90;101707.00;2064635;28;20053;-71
2022/10/12 04:26:41;;;;;;;11.00;1.80;;;;;;;9.85;85.73;101706.19;2064587;28;20288;-71
2022/10/12 04:27:46;;;;;;;9.25;1.50;;;;;;;9.82;85.87;101715.56;2064222;28;20292;-74
2022/10/12 04:28:51;;;;;;;9.93;1.52;;;;;;;9.78;85.67;101710.94;2055369;28;20286;-72
2022/10/12 04:29:54;;;;;;;5.15;1.33;;;;;;;9.74;85.98;101710.56;2063894;28;20301;-72
2022/10/12 04:30:56;;;;;;;5.20;1.23;;;;;;;9.69;86.01;101714.00;2071036;28;20042;-72
2022/10/12 04:32:00;;;;;;;6.55;1.45;;;;;;;9.70;85.60;101712.94;2063063;28;20705;-72
2022/10/12 04:33:04;;;;;;;8.27;1.85;;;;;;;9.68;85.60;101722.31;2054865;28;20058;-72
2022/10/12 04:34:12;;;;;;;5.25;1.45;;;;;;;9.64;85.80;101721.97;2063330;28;20573;-73
2022/10/12 04:35:18;;;;;;;8.13;1.40;;;;;;;9.63;86.25;101722.22;2055993;28;20286;-71
2022/10/12 04:36:27;;;;;;;5.88;1.35;;;;;;;9.60;85.95;101720.03;2064373;28;20623;-72
2022/10/12 04:37:31;;;;;;;8.35;1.80;;;;;;;9.59;86.50;101726.47;2071456;28;20371;-73
2022/10/12 04:38:33;;;;;;;7.20;1.27;;;;;;;9.58;86.13;101728.31;2071788;28;20042;-73
2022/10/12 04:39:41;;;;;;;9.63;2.05;;;;;;;9.57;86.28;101725.88;2063185;28;20324;-76
2022/10/12 04:40:48;;;;;;;8.02;1.40;;;;;;;9.57;86.12;101728.56;2057009;28;20293;-73
2022/10/12 04:41:55;;;;;;;10.13;2.00;;;;;;;9.55;86.38;101725.31;2071820;28;20624;-74
2022/10/12 04:42:57;;;;;;;9.43;2.50;;;;;;;9.55;86.21;101730.66;2079665;28;20398;-73
2022/10/12 04:44:04;;;;;;;11.90;1.63;;;;;;;9.54;87.11;101731.75;2071692;28;20042;-73
2022/10/12 04:45:09;;;;;;;10.45;2.13;;;;;;;9.52;86.45;101730.13;2063768;28;20629;-73
2022/10/12 04:46:14;;;;;;;5.55;1.35;;;;;;;9.51;86.24;101730.34;2072479;28;20053;-72
2022/10/12 04:47:16;;;;;;;7.88;1.80;;;;;;;9.49;86.49;101735.97;2055315;28;20298;-74
2022/10/12 04:48:19;;;;;;;6.95;1.33;;;;;;;9.50;87.18;101736.78;2047936;28;20521;-74
2022/10/12 04:49:27;;;;;;;6.90;1.70;;;;;;;9.49;86.68;101735.97;2056433;28;20054;-74
2022/10/12 04:50:33;;;;;;;5.85;1.30;;;;;;;9.49;86.98;101738.66;2074361;28;20284;-73
2022/10/12 04:51:38;;;;;;;6.20;1.77;;;;;;;9.50;87.15;101732.22;2071463;28;20657;-74
2022/10/12 04:52:42;;;;;;;2.67;1.25;;;;;;;9.54;87.50;101737.09;2055538;28;20027;-75
2022/10/12 04:53:53;;;;;;;10.60;1.75;;;;;;;9.57;87.65;101742.00;2058075;28;20031;-74
2022/10/12 04:54:57;;;;;;;6.35;1.20;;;;;;;9.59;87.31;101740.69;2063502;28;20328;-76
2022/10/12 04:56:04;;;;;;;6.38;1.40;;;;;;;9.62;87.19;101734.84;2071338;28;20666;-75
2022/10/12 04:57:11;;;;;;;5.38;1.25;;;;;;;9.67;87.60;101744.84;2078953;28;20033;-76
2022/10/12 04:58:17;;;;;;;5.22;1.40;;;;;;;9.69;87.24;101737.38;2078856;28;20272;-76
2022/10/12 04:59:22;;;;;;;4.95;1.10;;;;;;;9.73;87.32;101742.00;2063472;28;20820;-77
2022/10/12 05:00:28;;;;;;;9.90;1.80;;;;;;;9.75;87.66;101741.75;2071673;28;20292;-77
2022/10/12 05:01:32;;;;;;;9.15;1.75;;;;;;;9.78;87.13;101741.28;2086146;28;20294;-74
2022/10/12 05:02:36;;;;;;;5.70;1.10;;;;;;;9.80;87.30;101741.84;2079480;28;20306;-76
2022/10/12 05:03:43;;;;;;;5.47;1.40;;;;;;;9.83;87.05;101741.34;2061978;28;20494;-76
2022/10/12 05:04:49;;;;;;;7.03;1.52;;;;;;;9.85;86.53;101741.94;2056783;28;20325;-75
2022/10/12 05:05:53;;;;;;;4.82;1.35;;;;;;;9.85;86.90;101743.81;2063357;28;20297;-77
2022/10/12 05:06:59;;;;;;;5.97;1.27;;;;;;;9.85;86.79;101749.97;2064102;28;20710;-75
2022/10/12 05:08:05;;;;;;;6.07;1.50;;;;;;;9.84;86.79;101748.38;2071473;28;20296;-75
2022/10/12 05:09:13;;;;;;;6.28;1.60;;;;;;;9.83;86.91;101746.72;2056587;28;20923;-74
2022/10/12 05:10:19;;;;;;;9.32;1.85;;;;;;;9.80;86.39;101744.50;2055503;28;20042;-75
2022/10/12 05:11:30;;;;;;;3.25;1.27;;;;;;;9.79;86.78;101748.28;2070364;28;20058;-80
2022/10/12 05:12:31;;;;;;;4.35;1.20;;;;;;;9.75;86.38;101747.94;2070661;28;20327;-77
2022/10/12 05:13:34;;;;;;;7.47;1.45;;;;;;;9.71;86.45;101743.31;2062911;28;20046;-77
2022/10/12 05:14:39;;;;;;;8.85;2.28;;;;;;;9.72;86.44;101747.63;2071281;28;20421;-84
2022/10/12 05:15:44;;;;;;;5.53;1.48;;;;;;;9.69;86.54;101745.44;2078886;28;20370;-76